sensor_id;sensor_type;location;lat;lon;timestamp;P1;durP1;ratioP1;P2;durP2;ratioP2
29246;SDS011;16272;48.188;9.964;2023-07-29T00:01:33;7.87;;;3.20;;
29246;SDS011;16272;48.188;9.964;2023-07-29T00:03:59;8.73;;;3.10;;
29246;SDS011;16272;48.188;9.964;2023-07-29T00:06:25;8.77;;;3.17;;
29246;SDS011;16272;48.188;9.964;2023-07-29T00:08:50;8.50;;;2.80;;
29246;SDS011;16272;48.188;9.964;2023-07-29T00:11:15;8.00;;;2.67;;
29246;SDS011;16272;48.188;9.964;2023-07-29T00:13:41;9.03;;;3.03;;
29246;SDS011;16272;48.188;9.964;2023-07-29T00:16:06;7.20;;;2.87;;
29246;SDS011;16272;48.188;9.964;2023-07-29T00:18:31;8.00;;;3.07;;
29246;SDS011;16272;48.188;9.964;2023-07-29T00:20:57;14.60;;;3.28;;
29246;SDS011;16272;48.188;9.964;2023-07-29T00:23:23;8.40;;;3.37;;
29246;SDS011;16272;48.188;9.964;2023-07-29T00:25:48;19.93;;;3.60;;
29246;SDS011;16272;48.188;9.964;2023-07-29T00:28:13;13.65;;;3.92;;
29246;SDS011;16272;48.188;9.964;2023-07-29T00:30:39;25.83;;;3.60;;
29246;SDS011;16272;48.188;9.964;2023-07-29T00:33:04;24.23;;;4.17;;
29246;SDS011;16272;48.188;9.964;2023-07-29T00:35:29;12.73;;;3.27;;
29246;SDS011;16272;48.188;9.964;2023-07-29T00:37:55;9.20;;;2.97;;
29246;SDS011;16272;48.188;9.964;2023-07-29T00:40:21;8.33;;;2.90;;
29246;SDS011;16272;48.188;9.964;2023-07-29T00:42:47;8.80;;;3.42;;
29246;SDS011;16272;48.188;9.964;2023-07-29T00:45:14;7.70;;;3.03;;
29246;SDS011;16272;48.188;9.964;2023-07-29T00:47:39;7.00;;;2.83;;
29246;SDS011;16272;48.188;9.964;2023-07-29T00:50:06;7.88;;;2.85;;
29246;SDS011;16272;48.188;9.964;2023-07-29T00:52:32;8.10;;;2.60;;
29246;SDS011;16272;48.188;9.964;2023-07-29T00:54:58;7.20;;;2.90;;
29246;SDS011;16272;48.188;9.964;2023-07-29T00:57:23;9.73;;;2.60;;
29246;SDS011;16272;48.188;9.964;2023-07-29T00:59:50;10.87;;;2.80;;
29246;SDS011;16272;48.188;9.964;2023-07-29T01:02:16;17.73;;;2.90;;
29246;SDS011;16272;48.188;9.964;2023-07-29T01:04:41;13.37;;;3.13;;
29246;SDS011;16272;48.188;9.964;2023-07-29T01:17:40;18.80;;;3.17;;
29246;SDS011;16272;48.188;9.964;2023-07-29T01:20:09;25.33;;;2.58;;
29246;SDS011;16272;48.188;9.964;2023-07-29T01:22:38;14.57;;;2.47;;
29246;SDS011;16272;48.188;9.964;2023-07-29T01:25:05;12.32;;;2.53;;
29246;SDS011;16272;48.188;9.964;2023-07-29T01:27:30;6.72;;;2.45;;
29246;SDS011;16272;48.188;9.964;2023-07-29T01:29:56;6.70;;;2.30;;
29246;SDS011;16272;48.188;9.964;2023-07-29T01:35:15;6.53;;;2.33;;
29246;SDS011;16272;48.188;9.964;2023-07-29T01:37:41;6.68;;;2.53;;
29246;SDS011;16272;48.188;9.964;2023-07-29T01:40:09;8.00;;;2.80;;
29246;SDS011;16272;48.188;9.964;2023-07-29T01:42:35;8.23;;;3.20;;
29246;SDS011;16272;48.188;9.964;2023-07-29T01:45:02;9.40;;;3.08;;
29246;SDS011;16272;48.188;9.964;2023-07-29T01:47:27;7.40;;;2.60;;
29246;SDS011;16272;48.188;9.964;2023-07-29T01:49:52;9.30;;;2.90;;
29246;SDS011;16272;48.188;9.964;2023-07-29T01:52:18;7.32;;;2.60;;
29246;SDS011;16272;48.188;9.964;2023-07-29T01:54:43;9.67;;;2.73;;
29246;SDS011;16272;48.188;9.964;2023-07-29T01:57:08;9.23;;;2.97;;
29246;SDS011;16272;48.188;9.964;2023-07-29T01:59:34;9.47;;;3.27;;
29246;SDS011;16272;48.188;9.964;2023-07-29T02:01:59;7.70;;;2.53;;
29246;SDS011;16272;48.188;9.964;2023-07-29T02:04:24;7.47;;;2.90;;
29246;SDS011;16272;48.188;9.964;2023-07-29T02:06:49;7.70;;;2.40;;
29246;SDS011;16272;48.188;9.964;2023-07-29T02:09:15;7.90;;;2.70;;
29246;SDS011;16272;48.188;9.964;2023-07-29T02:11:40;7.53;;;2.53;;
29246;SDS011;16272;48.188;9.964;2023-07-29T02:14:05;9.43;;;2.80;;
29246;SDS011;16272;48.188;9.964;2023-07-29T02:16:31;7.27;;;2.60;;
29246;SDS011;16272;48.188;9.964;2023-07-29T02:18:57;8.37;;;3.07;;
29246;SDS011;16272;48.188;9.964;2023-07-29T02:21:23;8.37;;;2.97;;
29246;SDS011;16272;48.188;9.964;2023-07-29T02:23:48;6.77;;;2.77;;
29246;SDS011;16272;48.188;9.964;2023-07-29T02:26:13;8.50;;;2.70;;
29246;SDS011;16272;48.188;9.964;2023-07-29T02:28:39;8.27;;;3.30;;
29246;SDS011;16272;48.188;9.964;2023-07-29T02:31:23;6.63;;;2.67;;
29246;SDS011;16272;48.188;9.964;2023-07-29T02:33:50;8.55;;;2.78;;
29246;SDS011;16272;48.188;9.964;2023-07-29T02:36:16;7.63;;;2.88;;
29246;SDS011;16272;48.188;9.964;2023-07-29T02:38:42;8.07;;;2.93;;
29246;SDS011;16272;48.188;9.964;2023-07-29T02:41:08;8.02;;;2.72;;
29246;SDS011;16272;48.188;9.964;2023-07-29T02:43:34;8.40;;;2.70;;
29246;SDS011;16272;48.188;9.964;2023-07-29T02:46:02;7.93;;;3.50;;
29246;SDS011;16272;48.188;9.964;2023-07-29T02:48:28;9.13;;;3.00;;
29246;SDS011;16272;48.188;9.964;2023-07-29T02:50:54;6.67;;;2.50;;
29246;SDS011;16272;48.188;9.964;2023-07-29T02:53:19;7.80;;;2.90;;
29246;SDS011;16272;48.188;9.964;2023-07-29T02:55:45;8.20;;;3.00;;
29246;SDS011;16272;48.188;9.964;2023-07-29T02:58:10;8.68;;;2.72;;
29246;SDS011;16272;48.188;9.964;2023-07-29T03:00:36;9.17;;;2.87;;
29246;SDS011;16272;48.188;9.964;2023-07-29T03:03:01;7.00;;;3.17;;
29246;SDS011;16272;48.188;9.964;2023-07-29T03:05:27;6.90;;;2.47;;
29246;SDS011;16272;48.188;9.964;2023-07-29T03:07:53;6.72;;;2.65;;
29246;SDS011;16272;48.188;9.964;2023-07-29T03:10:18;8.43;;;3.17;;
29246;SDS011;16272;48.188;9.964;2023-07-29T03:12:43;7.47;;;3.17;;
29246;SDS011;16272;48.188;9.964;2023-07-29T03:15:09;7.77;;;2.70;;
29246;SDS011;16272;48.188;9.964;2023-07-29T03:17:34;6.70;;;2.70;;
29246;SDS011;16272;48.188;9.964;2023-07-29T03:19:59;13.30;;;3.67;;
29246;SDS011;16272;48.188;9.964;2023-07-29T03:22:25;10.87;;;3.30;;
29246;SDS011;16272;48.188;9.964;2023-07-29T03:24:50;20.43;;;3.63;;
29246;SDS011;16272;48.188;9.964;2023-07-29T03:27:15;8.23;;;3.03;;
29246;SDS011;16272;48.188;9.964;2023-07-29T03:29:41;7.27;;;2.80;;
29246;SDS011;16272;48.188;9.964;2023-07-29T03:32:06;7.55;;;2.80;;
29246;SDS011;16272;48.188;9.964;2023-07-29T03:34:32;6.60;;;2.50;;
29246;SDS011;16272;48.188;9.964;2023-07-29T03:36:57;7.17;;;2.77;;
29246;SDS011;16272;48.188;9.964;2023-07-29T03:39:23;6.40;;;2.60;;
29246;SDS011;16272;48.188;9.964;2023-07-29T03:41:49;8.53;;;3.40;;
29246;SDS011;16272;48.188;9.964;2023-07-29T03:44:14;7.57;;;2.93;;
29246;SDS011;16272;48.188;9.964;2023-07-29T03:46:39;6.67;;;2.57;;
29246;SDS011;16272;48.188;9.964;2023-07-29T03:49:05;7.10;;;2.83;;
29246;SDS011;16272;48.188;9.964;2023-07-29T03:51:30;6.70;;;2.63;;
29246;SDS011;16272;48.188;9.964;2023-07-29T03:53:55;8.50;;;2.80;;
29246;SDS011;16272;48.188;9.964;2023-07-29T03:56:20;7.47;;;2.80;;
29246;SDS011;16272;48.188;9.964;2023-07-29T03:58:46;9.50;;;2.90;;
29246;SDS011;16272;48.188;9.964;2023-07-29T04:01:13;15.38;;;3.42;;
29246;SDS011;16272;48.188;9.964;2023-07-29T04:03:38;9.20;;;3.10;;
29246;SDS011;16272;48.188;9.964;2023-07-29T04:06:03;8.47;;;3.40;;
29246;SDS011;16272;48.188;9.964;2023-07-29T04:08:29;10.33;;;3.30;;
29246;SDS011;16272;48.188;9.964;2023-07-29T04:10:54;7.40;;;3.13;;
29246;SDS011;16272;48.188;9.964;2023-07-29T04:13:20;8.75;;;3.65;;
29246;SDS011;16272;48.188;9.964;2023-07-29T04:15:45;10.60;;;3.10;;
29246;SDS011;16272;48.188;9.964;2023-07-29T04:18:10;8.73;;;3.43;;
29246;SDS011;16272;48.188;9.964;2023-07-29T04:20:35;10.40;;;3.63;;
29246;SDS011;16272;48.188;9.964;2023-07-29T04:23:01;10.23;;;3.57;;
29246;SDS011;16272;48.188;9.964;2023-07-29T04:25:27;8.70;;;3.60;;
29246;SDS011;16272;48.188;9.964;2023-07-29T04:27:53;8.70;;;4.20;;
29246;SDS011;16272;48.188;9.964;2023-07-29T04:30:19;9.18;;;4.15;;
29246;SDS011;16272;48.188;9.964;2023-07-29T04:32:44;7.97;;;3.70;;
29246;SDS011;16272;48.188;9.964;2023-07-29T04:35:13;8.43;;;3.77;;
29246;SDS011;16272;48.188;9.964;2023-07-29T04:37:39;7.35;;;3.50;;
29246;SDS011;16272;48.188;9.964;2023-07-29T04:40:05;7.77;;;3.73;;
29246;SDS011;16272;48.188;9.964;2023-07-29T04:42:32;8.20;;;3.40;;
29246;SDS011;16272;48.188;9.964;2023-07-29T04:44:58;7.60;;;3.73;;
29246;SDS011;16272;48.188;9.964;2023-07-29T04:47:23;9.10;;;3.40;;
29246;SDS011;16272;48.188;9.964;2023-07-29T04:49:48;7.20;;;3.37;;
29246;SDS011;16272;48.188;9.964;2023-07-29T04:52:14;7.83;;;3.40;;
29246;SDS011;16272;48.188;9.964;2023-07-29T04:54:40;9.38;;;3.30;;
29246;SDS011;16272;48.188;9.964;2023-07-29T04:57:05;8.70;;;3.80;;
29246;SDS011;16272;48.188;9.964;2023-07-29T04:59:31;8.50;;;3.53;;
29246;SDS011;16272;48.188;9.964;2023-07-29T05:01:56;7.57;;;3.58;;
29246;SDS011;16272;48.188;9.964;2023-07-29T05:04:22;8.73;;;4.00;;
29246;SDS011;16272;48.188;9.964;2023-07-29T05:06:47;8.97;;;3.60;;
29246;SDS011;16272;48.188;9.964;2023-07-29T05:09:13;8.23;;;3.83;;
29246;SDS011;16272;48.188;9.964;2023-07-29T05:11:40;9.57;;;4.00;;
29246;SDS011;16272;48.188;9.964;2023-07-29T05:14:06;8.73;;;4.23;;
29246;SDS011;16272;48.188;9.964;2023-07-29T05:16:31;7.90;;;3.55;;
29246;SDS011;16272;48.188;9.964;2023-07-29T05:18:57;7.80;;;3.70;;
29246;SDS011;16272;48.188;9.964;2023-07-29T05:21:22;9.38;;;3.67;;
29246;SDS011;16272;48.188;9.964;2023-07-29T05:23:48;7.37;;;3.40;;
29246;SDS011;16272;48.188;9.964;2023-07-29T05:26:13;8.00;;;4.00;;
29246;SDS011;16272;48.188;9.964;2023-07-29T05:28:38;8.57;;;4.00;;
29246;SDS011;16272;48.188;9.964;2023-07-29T05:31:03;8.10;;;3.70;;
29246;SDS011;16272;48.188;9.964;2023-07-29T05:33:29;8.93;;;4.33;;
29246;SDS011;16272;48.188;9.964;2023-07-29T05:35:54;7.70;;;3.77;;
29246;SDS011;16272;48.188;9.964;2023-07-29T05:38:19;11.23;;;3.93;;
29246;SDS011;16272;48.188;9.964;2023-07-29T05:40:45;8.40;;;4.20;;
29246;SDS011;16272;48.188;9.964;2023-07-29T05:43:12;8.55;;;3.70;;
29246;SDS011;16272;48.188;9.964;2023-07-29T05:45:39;9.88;;;4.15;;
29246;SDS011;16272;48.188;9.964;2023-07-29T05:48:04;9.30;;;4.40;;
29246;SDS011;16272;48.188;9.964;2023-07-29T05:50:30;10.93;;;4.30;;
29246;SDS011;16272;48.188;9.964;2023-07-29T05:52:55;8.30;;;3.93;;
29246;SDS011;16272;48.188;9.964;2023-07-29T05:55:20;8.40;;;3.80;;
29246;SDS011;16272;48.188;9.964;2023-07-29T05:57:45;9.48;;;3.92;;
29246;SDS011;16272;48.188;9.964;2023-07-29T06:00:11;9.27;;;3.83;;
29246;SDS011;16272;48.188;9.964;2023-07-29T06:02:36;8.33;;;3.60;;
29246;SDS011;16272;48.188;9.964;2023-07-29T06:05:02;8.20;;;3.80;;
29246;SDS011;16272;48.188;9.964;2023-07-29T06:07:28;9.13;;;4.32;;
29246;SDS011;16272;48.188;9.964;2023-07-29T06:09:55;9.32;;;3.55;;
29246;SDS011;16272;48.188;9.964;2023-07-29T06:12:21;9.37;;;4.10;;
29246;SDS011;16272;48.188;9.964;2023-07-29T06:14:46;8.30;;;3.57;;
29246;SDS011;16272;48.188;9.964;2023-07-29T06:17:11;8.63;;;3.70;;
29246;SDS011;16272;48.188;9.964;2023-07-29T06:19:37;9.20;;;3.87;;
29246;SDS011;16272;48.188;9.964;2023-07-29T06:22:03;10.05;;;4.00;;
29246;SDS011;16272;48.188;9.964;2023-07-29T06:24:29;8.95;;;3.60;;
29246;SDS011;16272;48.188;9.964;2023-07-29T06:26:54;9.93;;;4.03;;
29246;SDS011;16272;48.188;9.964;2023-07-29T06:29:19;8.00;;;3.80;;
29246;SDS011;16272;48.188;9.964;2023-07-29T06:31:45;10.20;;;3.73;;
29246;SDS011;16272;48.188;9.964;2023-07-29T06:34:10;9.80;;;3.92;;
29246;SDS011;16272;48.188;9.964;2023-07-29T06:36:36;7.37;;;3.53;;
29246;SDS011;16272;48.188;9.964;2023-07-29T06:39:01;7.60;;;3.50;;
29246;SDS011;16272;48.188;9.964;2023-07-29T06:41:27;8.37;;;3.50;;
29246;SDS011;16272;48.188;9.964;2023-07-29T06:43:52;7.57;;;3.22;;
29246;SDS011;16272;48.188;9.964;2023-07-29T06:46:17;7.80;;;3.50;;
29246;SDS011;16272;48.188;9.964;2023-07-29T06:48:42;9.00;;;3.70;;
29246;SDS011;16272;48.188;9.964;2023-07-29T06:51:08;8.07;;;3.70;;
29246;SDS011;16272;48.188;9.964;2023-07-29T06:53:33;8.73;;;3.93;;
29246;SDS011;16272;48.188;9.964;2023-07-29T06:55:58;8.13;;;3.40;;
29246;SDS011;16272;48.188;9.964;2023-07-29T06:58:24;8.13;;;3.25;;
29246;SDS011;16272;48.188;9.964;2023-07-29T07:00:50;8.00;;;3.63;;
29246;SDS011;16272;48.188;9.964;2023-07-29T07:03:15;7.23;;;3.50;;
29246;SDS011;16272;48.188;9.964;2023-07-29T07:05:40;7.97;;;3.37;;
29246;SDS011;16272;48.188;9.964;2023-07-29T07:08:06;8.17;;;3.50;;
29246;SDS011;16272;48.188;9.964;2023-07-29T07:10:31;8.83;;;3.63;;
29246;SDS011;16272;48.188;9.964;2023-07-29T07:12:58;8.20;;;3.65;;
29246;SDS011;16272;48.188;9.964;2023-07-29T07:15:24;8.93;;;3.83;;
29246;SDS011;16272;48.188;9.964;2023-07-29T07:17:50;8.23;;;3.53;;
29246;SDS011;16272;48.188;9.964;2023-07-29T07:20:16;7.93;;;3.70;;
29246;SDS011;16272;48.188;9.964;2023-07-29T07:22:41;7.40;;;3.43;;
29246;SDS011;16272;48.188;9.964;2023-07-29T07:25:07;10.17;;;3.73;;
29246;SDS011;16272;48.188;9.964;2023-07-29T07:27:32;8.02;;;3.65;;
29246;SDS011;16272;48.188;9.964;2023-07-29T07:29:58;8.73;;;3.53;;
29246;SDS011;16272;48.188;9.964;2023-07-29T07:32:23;7.73;;;4.00;;
29246;SDS011;16272;48.188;9.964;2023-07-29T07:34:48;8.10;;;3.87;;
29246;SDS011;16272;48.188;9.964;2023-07-29T07:37:14;8.33;;;3.17;;
29246;SDS011;16272;48.188;9.964;2023-07-29T07:39:39;8.40;;;3.90;;
29246;SDS011;16272;48.188;9.964;2023-07-29T07:42:05;8.07;;;4.10;;
29246;SDS011;16272;48.188;9.964;2023-07-29T07:44:30;8.27;;;3.70;;
29246;SDS011;16272;48.188;9.964;2023-07-29T07:46:55;8.83;;;3.80;;
29246;SDS011;16272;48.188;9.964;2023-07-29T07:49:21;9.40;;;3.80;;
29246;SDS011;16272;48.188;9.964;2023-07-29T07:51:47;8.63;;;3.83;;
29246;SDS011;16272;48.188;9.964;2023-07-29T07:54:12;8.10;;;4.00;;
29246;SDS011;16272;48.188;9.964;2023-07-29T07:56:37;8.07;;;3.73;;
29246;SDS011;16272;48.188;9.964;2023-07-29T07:59:03;8.07;;;4.03;;
29246;SDS011;16272;48.188;9.964;2023-07-29T08:01:33;8.67;;;3.93;;
29246;SDS011;16272;48.188;9.964;2023-07-29T08:03:59;7.78;;;3.90;;
29246;SDS011;16272;48.188;9.964;2023-07-29T08:06:24;7.93;;;3.90;;
29246;SDS011;16272;48.188;9.964;2023-07-29T08:08:49;8.53;;;3.83;;
29246;SDS011;16272;48.188;9.964;2023-07-29T08:11:15;8.67;;;3.67;;
29246;SDS011;16272;48.188;9.964;2023-07-29T08:13:40;8.10;;;3.37;;
29246;SDS011;16272;48.188;9.964;2023-07-29T08:16:05;8.43;;;4.33;;
29246;SDS011;16272;48.188;9.964;2023-07-29T08:18:31;7.93;;;3.77;;
29246;SDS011;16272;48.188;9.964;2023-07-29T08:20:57;8.63;;;3.97;;
29246;SDS011;16272;48.188;9.964;2023-07-29T08:23:24;9.32;;;3.60;;
29246;SDS011;16272;48.188;9.964;2023-07-29T08:25:54;9.27;;;3.78;;
29246;SDS011;16272;48.188;9.964;2023-07-29T08:28:21;8.67;;;4.07;;
29246;SDS011;16272;48.188;9.964;2023-07-29T08:30:49;8.75;;;4.13;;
29246;SDS011;16272;48.188;9.964;2023-07-29T08:33:15;7.97;;;3.77;;
29246;SDS011;16272;48.188;9.964;2023-07-29T08:35:40;7.80;;;3.78;;
29246;SDS011;16272;48.188;9.964;2023-07-29T08:38:06;8.07;;;4.20;;
29246;SDS011;16272;48.188;9.964;2023-07-29T08:40:31;8.63;;;4.07;;
29246;SDS011;16272;48.188;9.964;2023-07-29T08:42:59;9.52;;;3.88;;
29246;SDS011;16272;48.188;9.964;2023-07-29T08:45:30;8.10;;;3.60;;
29246;SDS011;16272;48.188;9.964;2023-07-29T08:47:59;7.78;;;3.92;;
29246;SDS011;16272;48.188;9.964;2023-07-29T08:50:27;8.43;;;3.65;;
29246;SDS011;16272;48.188;9.964;2023-07-29T08:52:54;7.63;;;3.67;;
29246;SDS011;16272;48.188;9.964;2023-07-29T08:55:20;8.70;;;3.70;;
29246;SDS011;16272;48.188;9.964;2023-07-29T08:57:47;7.70;;;3.57;;
29246;SDS011;16272;48.188;9.964;2023-07-29T09:00:12;10.95;;;3.45;;
29246;SDS011;16272;48.188;9.964;2023-07-29T09:02:38;8.80;;;4.00;;
29246;SDS011;16272;48.188;9.964;2023-07-29T09:05:03;7.93;;;3.67;;
29246;SDS011;16272;48.188;9.964;2023-07-29T09:07:30;7.82;;;3.03;;
29246;SDS011;16272;48.188;9.964;2023-07-29T09:09:58;7.50;;;3.80;;
29246;SDS011;16272;48.188;9.964;2023-07-29T09:12:23;7.30;;;3.43;;
29246;SDS011;16272;48.188;9.964;2023-07-29T09:14:51;7.30;;;3.42;;
29246;SDS011;16272;48.188;9.964;2023-07-29T09:17:17;9.40;;;3.80;;
29246;SDS011;16272;48.188;9.964;2023-07-29T09:19:46;8.30;;;4.10;;
29246;SDS011;16272;48.188;9.964;2023-07-29T09:22:19;8.18;;;3.35;;
29246;SDS011;16272;48.188;9.964;2023-07-29T09:24:46;7.53;;;3.72;;
29246;SDS011;16272;48.188;9.964;2023-07-29T09:27:24;7.22;;;3.53;;
29246;SDS011;16272;48.188;9.964;2023-07-29T09:29:56;8.48;;;3.72;;
29246;SDS011;16272;48.188;9.964;2023-07-29T09:32:24;9.47;;;3.50;;
29246;SDS011;16272;48.188;9.964;2023-07-29T09:34:50;7.75;;;3.35;;
29246;SDS011;16272;48.188;9.964;2023-07-29T09:37:25;8.00;;;3.22;;
29246;SDS011;16272;48.188;9.964;2023-07-29T09:39:51;7.88;;;3.78;;
29246;SDS011;16272;48.188;9.964;2023-07-29T09:42:17;8.13;;;3.23;;
29246;SDS011;16272;48.188;9.964;2023-07-29T09:44:47;8.45;;;3.10;;
29246;SDS011;16272;48.188;9.964;2023-07-29T09:49:46;8.83;;;3.47;;
29246;SDS011;16272;48.188;9.964;2023-07-29T09:52:12;7.63;;;3.40;;
29246;SDS011;16272;48.188;9.964;2023-07-29T09:54:39;8.82;;;3.70;;
29246;SDS011;16272;48.188;9.964;2023-07-29T09:57:04;7.30;;;3.10;;
29246;SDS011;16272;48.188;9.964;2023-07-29T09:59:35;8.30;;;3.53;;
29246;SDS011;16272;48.188;9.964;2023-07-29T10:02:00;8.50;;;3.50;;
29246;SDS011;16272;48.188;9.964;2023-07-29T10:04:26;9.93;;;3.50;;
29246;SDS011;16272;48.188;9.964;2023-07-29T10:06:52;7.63;;;3.20;;
29246;SDS011;16272;48.188;9.964;2023-07-29T10:09:18;9.10;;;3.50;;
29246;SDS011;16272;48.188;9.964;2023-07-29T10:11:45;7.43;;;3.50;;
29246;SDS011;16272;48.188;9.964;2023-07-29T10:14:10;6.73;;;2.97;;
29246;SDS011;16272;48.188;9.964;2023-07-29T10:16:36;7.30;;;3.30;;
29246;SDS011;16272;48.188;9.964;2023-07-29T10:19:03;7.18;;;3.40;;
29246;SDS011;16272;48.188;9.964;2023-07-29T10:21:29;7.75;;;3.00;;
29246;SDS011;16272;48.188;9.964;2023-07-29T10:23:56;7.55;;;2.88;;
29246;SDS011;16272;48.188;9.964;2023-07-29T10:26:24;7.95;;;3.47;;
29246;SDS011;16272;48.188;9.964;2023-07-29T10:28:52;7.00;;;3.57;;
29246;SDS011;16272;48.188;9.964;2023-07-29T10:31:26;8.65;;;3.42;;
29246;SDS011;16272;48.188;9.964;2023-07-29T10:33:54;7.22;;;3.40;;
29246;SDS011;16272;48.188;9.964;2023-07-29T10:36:20;7.20;;;3.70;;
29246;SDS011;16272;48.188;9.964;2023-07-29T10:38:45;7.87;;;3.00;;
29246;SDS011;16272;48.188;9.964;2023-07-29T10:41:11;7.68;;;3.53;;
29246;SDS011;16272;48.188;9.964;2023-07-29T10:43:37;7.47;;;3.70;;
29246;SDS011;16272;48.188;9.964;2023-07-29T10:46:14;6.93;;;3.30;;
29246;SDS011;16272;48.188;9.964;2023-07-29T10:48:42;7.70;;;3.43;;
29246;SDS011;16272;48.188;9.964;2023-07-29T10:51:25;6.78;;;3.28;;
29246;SDS011;16272;48.188;9.964;2023-07-29T10:56:27;7.75;;;3.50;;
29246;SDS011;16272;48.188;9.964;2023-07-29T10:58:58;7.00;;;3.33;;
29246;SDS011;16272;48.188;9.964;2023-07-29T11:01:54;10.20;;;3.33;;
29246;SDS011;16272;48.188;9.964;2023-07-29T11:04:25;6.97;;;3.00;;
29246;SDS011;16272;48.188;9.964;2023-07-29T11:12:51;8.15;;;3.53;;
29246;SDS011;16272;48.188;9.964;2023-07-29T11:20:15;9.23;;;3.83;;
29246;SDS011;16272;48.188;9.964;2023-07-29T11:22:42;10.38;;;3.88;;
29246;SDS011;16272;48.188;9.964;2023-07-29T11:25:09;7.20;;;3.00;;
29246;SDS011;16272;48.188;9.964;2023-07-29T11:27:37;7.65;;;3.10;;
29246;SDS011;16272;48.188;9.964;2023-07-29T11:30:05;6.82;;;2.97;;
29246;SDS011;16272;48.188;9.964;2023-07-29T11:32:34;6.13;;;2.75;;
29246;SDS011;16272;48.188;9.964;2023-07-29T11:35:10;7.53;;;2.47;;
29246;SDS011;16272;48.188;9.964;2023-07-29T11:37:37;7.90;;;3.15;;
29246;SDS011;16272;48.188;9.964;2023-07-29T11:40:04;6.75;;;2.47;;
29246;SDS011;16272;48.188;9.964;2023-07-29T11:42:33;7.20;;;3.10;;
29246;SDS011;16272;48.188;9.964;2023-07-29T11:44:59;8.38;;;2.80;;
29246;SDS011;16272;48.188;9.964;2023-07-29T11:47:25;8.20;;;3.00;;
29246;SDS011;16272;48.188;9.964;2023-07-29T11:49:51;7.40;;;3.50;;
29246;SDS011;16272;48.188;9.964;2023-07-29T11:52:17;9.23;;;3.97;;
29246;SDS011;16272;48.188;9.964;2023-07-29T11:54:44;7.38;;;3.33;;
29246;SDS011;16272;48.188;9.964;2023-07-29T11:57:11;6.38;;;2.92;;
29246;SDS011;16272;48.188;9.964;2023-07-29T11:59:39;7.82;;;3.10;;
29246;SDS011;16272;48.188;9.964;2023-07-29T12:02:05;7.70;;;2.77;;
29246;SDS011;16272;48.188;9.964;2023-07-29T12:04:34;7.03;;;2.90;;
29246;SDS011;16272;48.188;9.964;2023-07-29T12:07:01;7.53;;;3.00;;
29246;SDS011;16272;48.188;9.964;2023-07-29T12:09:27;6.72;;;2.80;;
29246;SDS011;16272;48.188;9.964;2023-07-29T12:11:53;7.43;;;3.53;;
29246;SDS011;16272;48.188;9.964;2023-07-29T12:14:19;7.88;;;3.55;;
29246;SDS011;16272;48.188;9.964;2023-07-29T12:16:48;7.23;;;3.10;;
29246;SDS011;16272;48.188;9.964;2023-07-29T12:19:14;8.10;;;2.83;;
29246;SDS011;16272;48.188;9.964;2023-07-29T12:21:43;6.25;;;3.00;;
29246;SDS011;16272;48.188;9.964;2023-07-29T12:24:09;8.60;;;2.83;;
29246;SDS011;16272;48.188;9.964;2023-07-29T12:26:36;6.65;;;2.88;;
29246;SDS011;16272;48.188;9.964;2023-07-29T12:29:16;6.27;;;2.73;;
29246;SDS011;16272;48.188;9.964;2023-07-29T12:31:44;6.60;;;2.88;;
29246;SDS011;16272;48.188;9.964;2023-07-29T12:34:10;8.80;;;3.13;;
29246;SDS011;16272;48.188;9.964;2023-07-29T12:39:15;7.32;;;2.47;;
29246;SDS011;16272;48.188;9.964;2023-07-29T12:41:44;6.97;;;2.70;;
29246;SDS011;16272;48.188;9.964;2023-07-29T12:44:10;5.73;;;2.40;;
29246;SDS011;16272;48.188;9.964;2023-07-29T12:46:36;7.57;;;2.67;;
29246;SDS011;16272;48.188;9.964;2023-07-29T12:49:01;7.60;;;2.83;;
29246;SDS011;16272;48.188;9.964;2023-07-29T12:51:26;7.20;;;2.70;;
29246;SDS011;16272;48.188;9.964;2023-07-29T12:53:53;6.10;;;2.50;;
29246;SDS011;16272;48.188;9.964;2023-07-29T12:56:18;6.38;;;2.38;;
29246;SDS011;16272;48.188;9.964;2023-07-29T12:58:44;6.00;;;2.43;;
29246;SDS011;16272;48.188;9.964;2023-07-29T13:01:09;6.03;;;2.50;;
29246;SDS011;16272;48.188;9.964;2023-07-29T13:03:37;6.07;;;2.40;;
29246;SDS011;16272;48.188;9.964;2023-07-29T13:06:03;6.73;;;2.13;;
29246;SDS011;16272;48.188;9.964;2023-07-29T13:08:29;8.20;;;2.20;;
29246;SDS011;16272;48.188;9.964;2023-07-29T13:10:55;6.28;;;2.60;;
29246;SDS011;16272;48.188;9.964;2023-07-29T13:13:20;6.93;;;2.40;;
29246;SDS011;16272;48.188;9.964;2023-07-29T13:15:46;6.47;;;2.63;;
29246;SDS011;16272;48.188;9.964;2023-07-29T13:18:11;5.43;;;1.90;;
29246;SDS011;16272;48.188;9.964;2023-07-29T13:20:36;5.77;;;2.07;;
29246;SDS011;16272;48.188;9.964;2023-07-29T13:23:02;7.30;;;2.60;;
29246;SDS011;16272;48.188;9.964;2023-07-29T13:25:28;5.78;;;2.50;;
29246;SDS011;16272;48.188;9.964;2023-07-29T13:27:53;5.33;;;1.93;;
29246;SDS011;16272;48.188;9.964;2023-07-29T13:30:18;6.00;;;2.50;;
29246;SDS011;16272;48.188;9.964;2023-07-29T13:32:44;6.40;;;2.00;;
29246;SDS011;16272;48.188;9.964;2023-07-29T13:35:09;6.23;;;2.60;;
29246;SDS011;16272;48.188;9.964;2023-07-29T13:37:35;5.18;;;2.05;;
29246;SDS011;16272;48.188;9.964;2023-07-29T13:40:00;6.07;;;2.03;;
29246;SDS011;16272;48.188;9.964;2023-07-29T13:42:25;6.07;;;2.10;;
29246;SDS011;16272;48.188;9.964;2023-07-29T13:44:51;5.70;;;1.90;;
29246;SDS011;16272;48.188;9.964;2023-07-29T13:47:16;5.93;;;2.37;;
29246;SDS011;16272;48.188;9.964;2023-07-29T13:49:41;5.93;;;1.73;;
29246;SDS011;16272;48.188;9.964;2023-07-29T13:52:07;5.90;;;1.98;;
29246;SDS011;16272;48.188;9.964;2023-07-29T13:54:32;6.20;;;2.07;;
29246;SDS011;16272;48.188;9.964;2023-07-29T13:56:57;5.70;;;2.30;;
29246;SDS011;16272;48.188;9.964;2023-07-29T13:59:23;6.43;;;2.07;;
29246;SDS011;16272;48.188;9.964;2023-07-29T14:01:48;5.90;;;2.00;;
29246;SDS011;16272;48.188;9.964;2023-07-29T14:04:13;6.10;;;2.33;;
29246;SDS011;16272;48.188;9.964;2023-07-29T14:06:39;5.93;;;2.60;;
29246;SDS011;16272;48.188;9.964;2023-07-29T14:09:04;5.90;;;2.47;;
29246;SDS011;16272;48.188;9.964;2023-07-29T14:11:29;6.33;;;2.23;;
29246;SDS011;16272;48.188;9.964;2023-07-29T14:13:55;5.83;;;2.30;;
29246;SDS011;16272;48.188;9.964;2023-07-29T14:16:20;6.50;;;2.20;;
29246;SDS011;16272;48.188;9.964;2023-07-29T14:18:45;5.57;;;2.40;;
29246;SDS011;16272;48.188;9.964;2023-07-29T14:21:11;6.93;;;2.57;;
29246;SDS011;16272;48.188;9.964;2023-07-29T14:23:36;6.33;;;2.30;;
29246;SDS011;16272;48.188;9.964;2023-07-29T14:26:01;5.40;;;1.83;;
29246;SDS011;16272;48.188;9.964;2023-07-29T14:28:27;5.93;;;2.10;;
29246;SDS011;16272;48.188;9.964;2023-07-29T14:30:52;6.17;;;2.70;;
29246;SDS011;16272;48.188;9.964;2023-07-29T14:33:17;6.10;;;2.40;;
29246;SDS011;16272;48.188;9.964;2023-07-29T14:35:43;7.70;;;2.57;;
29246;SDS011;16272;48.188;9.964;2023-07-29T14:38:08;6.37;;;2.70;;
29246;SDS011;16272;48.188;9.964;2023-07-29T14:40:33;6.10;;;2.50;;
29246;SDS011;16272;48.188;9.964;2023-07-29T14:42:58;6.50;;;2.67;;
29246;SDS011;16272;48.188;9.964;2023-07-29T14:45:24;5.80;;;2.30;;
29246;SDS011;16272;48.188;9.964;2023-07-29T14:47:49;6.72;;;2.50;;
29246;SDS011;16272;48.188;9.964;2023-07-29T14:50:15;5.87;;;2.63;;
29246;SDS011;16272;48.188;9.964;2023-07-29T14:52:40;5.97;;;2.40;;
29246;SDS011;16272;48.188;9.964;2023-07-29T14:55:05;8.20;;;2.37;;
29246;SDS011;16272;48.188;9.964;2023-07-29T14:57:31;5.97;;;2.40;;
29246;SDS011;16272;48.188;9.964;2023-07-29T14:59:56;6.43;;;2.20;;
29246;SDS011;16272;48.188;9.964;2023-07-29T15:02:21;6.20;;;2.73;;
29246;SDS011;16272;48.188;9.964;2023-07-29T15:04:48;6.18;;;2.20;;
29246;SDS011;16272;48.188;9.964;2023-07-29T15:07:13;5.90;;;2.37;;
29246;SDS011;16272;48.188;9.964;2023-07-29T15:09:39;6.03;;;2.30;;
29246;SDS011;16272;48.188;9.964;2023-07-29T15:12:05;6.13;;;2.55;;